createdAt,value
2023-03-01T00:01:10.216Z,100.00
2023-03-01T00:03:36.890Z,100.00
2023-03-01T00:06:04.118Z,100.00
2023-03-01T00:08:33.891Z,100.00
2023-03-01T00:11:07.843Z,100.00
2023-03-01T00:13:35.956Z,100.00
2023-03-01T00:16:04.915Z,100.00
2023-03-01T00:18:31.438Z,100.00
2023-03-01T00:20:58.084Z,100.00
2023-03-01T00:23:24.989Z,100.00
2023-03-01T00:25:51.822Z,100.00
2023-03-01T00:28:19.000Z,100.00
2023-03-01T00:30:45.877Z,100.00
2023-03-01T00:33:12.554Z,100.00
2023-03-01T00:35:39.140Z,100.00
2023-03-01T00:38:06.087Z,100.00
2023-03-01T00:40:34.816Z,100.00
2023-03-01T00:43:02.182Z,100.00
2023-03-01T00:45:29.401Z,100.00
2023-03-01T00:47:55.922Z,100.00
2023-03-01T00:50:22.704Z,100.00
2023-03-01T00:52:54.063Z,100.00
2023-03-01T00:55:20.723Z,100.00
2023-03-01T00:57:47.318Z,100.00
2023-03-01T01:00:14.170Z,100.00
2023-03-01T01:02:41.192Z,100.00
2023-03-01T01:05:08.264Z,100.00
2023-03-01T01:07:34.870Z,100.00
2023-03-01T01:10:01.386Z,100.00
2023-03-01T01:12:27.932Z,100.00
2023-03-01T01:14:54.436Z,100.00
2023-03-01T01:17:21.344Z,100.00
2023-03-01T01:19:47.844Z,100.00
2023-03-01T01:22:14.400Z,100.00
2023-03-01T01:24:40.874Z,100.00
2023-03-01T01:27:08.318Z,100.00
2023-03-01T01:29:34.950Z,100.00
2023-03-01T01:32:01.713Z,100.00
2023-03-01T01:34:28.253Z,100.00
2023-03-01T01:36:55.417Z,100.00
2023-03-01T01:39:22.835Z,100.00
2023-03-01T01:41:49.431Z,100.00
2023-03-01T01:44:20.657Z,100.00
2023-03-01T01:46:53.758Z,100.00
2023-03-01T01:49:41.897Z,100.00
2023-03-01T01:52:15.259Z,100.00
2023-03-01T01:55:06.736Z,100.00
2023-03-01T01:57:38.180Z,100.00
2023-03-01T02:00:23.178Z,100.00
2023-03-01T02:03:06.115Z,100.00
2023-03-01T02:05:46.805Z,100.00
2023-03-01T02:08:15.612Z,100.00
2023-03-01T02:10:43.065Z,100.00
2023-03-01T02:13:10.415Z,100.00
2023-03-01T02:15:39.234Z,100.00
2023-03-01T02:18:07.564Z,100.00
2023-03-01T02:20:46.517Z,100.00
2023-03-01T02:23:13.162Z,100.00
2023-03-01T02:25:59.231Z,100.00
2023-03-01T02:28:39.530Z,100.00
2023-03-01T02:31:26.994Z,100.00
2023-03-01T02:33:55.422Z,100.00
2023-03-01T02:36:26.261Z,100.00
2023-03-01T02:38:57.043Z,100.00
2023-03-01T02:41:26.038Z,100.00
2023-03-01T02:43:52.577Z,100.00
2023-03-01T02:46:23.211Z,100.00
2023-03-01T02:48:52.670Z,100.00
2023-03-01T02:51:45.304Z,100.00
2023-03-01T02:54:50.733Z,100.00
2023-03-01T02:57:17.632Z,100.00
2023-03-01T02:59:44.656Z,100.00
2023-03-01T03:02:38.891Z,100.00
2023-03-01T03:05:34.994Z,100.00
2023-03-01T03:08:04.012Z,100.00
2023-03-01T03:10:34.888Z,100.00
2023-03-01T03:13:08.622Z,100.00
2023-03-01T03:15:37.087Z,100.00
2023-03-01T03:18:08.102Z,100.00
2023-03-01T03:20:35.549Z,100.00
2023-03-01T03:23:02.389Z,100.00
2023-03-01T03:25:30.318Z,100.00
2023-03-01T03:27:57.975Z,100.00
2023-03-01T03:30:31.264Z,100.00
2023-03-01T03:32:59.551Z,100.00
2023-03-01T03:35:32.579Z,100.00
2023-03-01T03:38:07.505Z,100.00
2023-03-01T03:40:37.337Z,100.00
2023-03-01T03:43:21.535Z,100.00
2023-03-01T03:45:52.823Z,100.00
2023-03-01T03:48:19.542Z,100.00
2023-03-01T03:50:52.054Z,100.00
2023-03-01T03:53:19.787Z,100.00
2023-03-01T03:55:46.368Z,100.00
2023-03-01T03:58:12.954Z,100.00
2023-03-01T04:00:45.107Z,100.00
2023-03-01T04:03:14.339Z,100.00
2023-03-01T04:05:41.993Z,100.00
2023-03-01T04:08:09.668Z,100.00
2023-03-01T04:10:45.985Z,100.00
2023-03-01T04:13:15.014Z,100.00
2023-03-01T04:15:41.782Z,100.00
2023-03-01T04:18:12.527Z,100.00
2023-03-01T04:20:39.925Z,100.00
2023-03-01T04:23:16.736Z,100.00
2023-03-01T04:25:50.450Z,100.00
2023-03-01T04:28:17.585Z,100.00
2023-03-01T04:30:44.109Z,100.00
2023-03-01T04:33:12.117Z,100.00
2023-03-01T04:35:40.085Z,100.00
2023-03-01T04:38:07.035Z,100.00
2023-03-01T04:40:34.121Z,100.00
2023-03-01T04:43:01.038Z,100.00
2023-03-01T04:45:27.553Z,100.00
2023-03-01T04:47:54.215Z,100.00
2023-03-01T04:50:21.518Z,100.00
2023-03-01T04:52:48.429Z,100.00
2023-03-01T04:55:15.180Z,100.00
2023-03-01T04:57:41.786Z,100.00
2023-03-01T05:00:23.819Z,100.00
2023-03-01T05:03:00.395Z,100.00
2023-03-01T05:05:29.574Z,100.00
2023-03-01T05:07:58.588Z,100.00
2023-03-01T05:10:26.918Z,100.00
2023-03-01T05:12:54.067Z,100.00
2023-03-01T05:15:22.761Z,100.00
2023-03-01T05:17:50.213Z,100.00
2023-03-01T05:20:17.030Z,100.00
2023-03-01T05:22:43.726Z,100.00
2023-03-01T05:25:10.840Z,100.00
2023-03-01T05:27:37.609Z,100.00
2023-03-01T05:30:14.424Z,100.00
2023-03-01T05:32:44.228Z,100.00
2023-03-01T05:35:14.272Z,100.00
2023-03-01T05:37:42.765Z,100.00
2023-03-01T05:40:16.578Z,100.00
2023-03-01T05:42:55.117Z,100.00
2023-03-01T05:45:22.729Z,100.00
2023-03-01T05:47:50.555Z,100.00
2023-03-01T05:50:20.269Z,100.00
2023-03-01T05:52:49.587Z,100.00
2023-03-01T05:55:18.659Z,100.00
2023-03-01T05:57:45.780Z,100.00
2023-03-01T06:00:13.949Z,100.00
2023-03-01T06:02:41.002Z,100.00
2023-03-01T06:05:09.798Z,100.00
2023-03-01T06:07:36.584Z,100.00
2023-03-01T06:10:04.384Z,100.00
2023-03-01T06:12:33.111Z,100.00
2023-03-01T06:15:00.302Z,100.00
2023-03-01T06:17:27.478Z,100.00
2023-03-01T06:19:53.980Z,100.00
2023-03-01T06:22:20.487Z,100.00
2023-03-01T06:24:47.012Z,100.00
2023-03-01T06:27:13.504Z,100.00
2023-03-01T06:29:41.772Z,100.00
2023-03-01T06:32:09.161Z,100.00
2023-03-01T06:34:35.706Z,100.00
2023-03-01T06:37:06.240Z,100.00
2023-03-01T06:39:33.345Z,100.00
2023-03-01T06:41:59.979Z,100.00
2023-03-01T06:44:26.935Z,100.00
2023-03-01T06:46:53.701Z,100.00
2023-03-01T06:49:20.989Z,100.00
2023-03-01T06:51:47.958Z,100.00
2023-03-01T06:54:14.532Z,100.00
2023-03-01T06:56:41.073Z,100.00
2023-03-01T06:59:07.544Z,100.00
2023-03-01T07:01:34.092Z,85.04
2023-03-01T07:04:00.655Z,74.38
2023-03-01T07:06:27.166Z,63.93
2023-03-01T07:08:53.672Z,54.37
2023-03-01T07:11:20.198Z,49.86
2023-03-01T07:13:46.697Z,45.46
2023-03-01T07:16:13.297Z,46.07
2023-03-01T07:18:39.857Z,44.60
2023-03-01T07:21:08.122Z,44.06
2023-03-01T07:23:34.766Z,51.07
2023-03-01T07:26:01.631Z,66.58
2023-03-01T07:28:28.569Z,83.13
2023-03-01T07:30:55.522Z,86.23
2023-03-01T07:33:22.170Z,76.54
2023-03-01T07:35:48.790Z,67.43
2023-03-01T07:38:15.365Z,69.95
2023-03-01T07:40:41.843Z,55.61
2023-03-01T07:43:08.361Z,49.72
2023-03-01T07:45:34.861Z,39.98
2023-03-01T07:48:01.380Z,36.91
2023-03-01T07:50:27.914Z,33.65
2023-03-01T07:52:54.460Z,32.75
2023-03-01T07:55:21.238Z,32.49
2023-03-01T07:57:47.774Z,31.98
2023-03-01T08:00:14.680Z,32.41
2023-03-01T08:02:43.001Z,33.49
2023-03-01T08:05:11.300Z,32.21
2023-03-01T08:07:38.096Z,31.51
2023-03-01T08:10:04.933Z,31.00
2023-03-01T08:12:31.531Z,32.14
2023-03-01T08:14:58.098Z,34.63
2023-03-01T08:17:24.864Z,38.45
2023-03-01T08:19:51.358Z,39.79
2023-03-01T08:22:17.851Z,44.29
2023-03-01T08:24:44.386Z,45.95
2023-03-01T08:27:11.345Z,46.87
2023-03-01T08:29:37.822Z,45.76
2023-03-01T08:32:04.622Z,43.73
2023-03-01T08:34:32.299Z,42.50
2023-03-01T08:36:59.273Z,42.45
2023-03-01T08:39:26.019Z,41.66
2023-03-01T08:41:52.816Z,40.71
2023-03-01T08:44:19.337Z,40.06
2023-03-01T08:46:46.693Z,43.00
2023-03-01T08:49:15.772Z,44.46
2023-03-01T08:51:42.781Z,44.68
2023-03-01T08:54:16.003Z,41.59
2023-03-01T08:56:43.235Z,40.44
2023-03-01T08:59:11.208Z,40.30
2023-03-01T09:01:38.142Z,39.94
2023-03-01T09:04:05.466Z,43.82
2023-03-01T09:06:34.186Z,39.15
2023-03-01T09:09:01.977Z,37.72
2023-03-01T09:11:29.576Z,35.82
2023-03-01T09:13:56.494Z,36.21
2023-03-01T09:16:25.200Z,35.02
2023-03-01T09:18:53.476Z,33.43
2023-03-01T09:21:33.740Z,31.26
2023-03-01T09:24:05.931Z,29.25
2023-03-01T09:26:35.256Z,29.12
2023-03-01T09:29:01.889Z,33.50
2023-03-01T09:31:28.421Z,30.88
2023-03-01T09:33:55.950Z,30.58
2023-03-01T09:36:24.677Z,30.58
2023-03-01T09:38:53.875Z,34.59
2023-03-01T09:41:39.222Z,38.51
2023-03-01T09:44:31.046Z,39.83
2023-03-01T09:46:58.882Z,40.92
2023-03-01T09:49:34.898Z,46.43
2023-03-01T09:52:37.067Z,35.16
2023-03-01T09:55:11.524Z,31.85
2023-03-01T09:57:46.934Z,30.83
2023-03-01T10:00:32.259Z,29.97
2023-03-01T10:03:13.235Z,31.83
2023-03-01T10:05:51.077Z,31.74
2023-03-01T10:08:30.370Z,29.28
2023-03-01T10:10:56.922Z,28.52
2023-03-01T10:13:53.896Z,28.54
2023-03-01T10:16:40.449Z,29.30
2023-03-01T10:19:15.775Z,28.98
2023-03-01T10:21:45.763Z,30.29
2023-03-01T10:24:16.112Z,29.15
2023-03-01T10:26:58.118Z,28.84
2023-03-01T10:29:31.846Z,30.27
2023-03-01T10:31:58.612Z,30.08
2023-03-01T10:34:33.072Z,32.48
2023-03-01T10:37:21.941Z,30.92
2023-03-01T10:40:01.973Z,28.45
2023-03-01T10:42:32.611Z,28.55
2023-03-01T10:45:15.967Z,31.10
2023-03-01T10:47:42.566Z,33.62
2023-03-01T10:50:24.411Z,36.74
2023-03-01T10:53:00.587Z,34.82
2023-03-01T10:55:39.328Z,35.86
2023-03-01T10:58:10.390Z,34.94
2023-03-01T11:00:49.031Z,32.49
2023-03-01T11:03:21.248Z,36.39
2023-03-01T11:06:13.991Z,34.35
2023-03-01T11:08:44.433Z,33.41
2023-03-01T11:11:14.103Z,31.53
2023-03-01T11:13:52.462Z,32.40
2023-03-01T11:16:29.416Z,37.81
2023-03-01T11:19:15.512Z,37.28
2023-03-01T11:22:08.697Z,40.38
2023-03-01T11:24:43.414Z,42.16
2023-03-01T11:27:18.327Z,41.42
2023-03-01T11:29:52.155Z,40.28
2023-03-01T11:32:22.217Z,36.03
2023-03-01T11:34:54.464Z,38.37
2023-03-01T11:37:29.776Z,39.11
2023-03-01T11:40:21.608Z,38.27
2023-03-01T11:43:16.248Z,38.16
2023-03-01T11:45:55.745Z,35.78
2023-03-01T11:48:49.897Z,36.10
2023-03-01T11:51:45.615Z,36.50
2023-03-01T11:54:22.007Z,35.47
2023-03-01T11:56:53.682Z,33.36
2023-03-01T11:59:54.511Z,34.96
2023-03-01T12:02:41.544Z,36.13
2023-03-01T12:05:32.862Z,36.88
2023-03-01T12:08:12.186Z,37.26
2023-03-01T12:10:44.855Z,36.37
2023-03-01T12:13:39.637Z,36.04
2023-03-01T12:16:37.634Z,38.37
2023-03-01T12:19:24.049Z,38.39
2023-03-01T12:22:31.449Z,39.14
2023-03-01T12:25:16.517Z,39.97
2023-03-01T12:27:54.869Z,39.35
2023-03-01T12:30:58.898Z,41.47
2023-03-01T12:33:46.329Z,42.65
2023-03-01T12:36:40.629Z,43.68
2023-03-01T12:39:33.734Z,44.12
2023-03-01T12:42:13.337Z,42.96
2023-03-01T12:45:04.041Z,43.00
2023-03-01T12:47:55.680Z,43.45
2023-03-01T12:50:25.447Z,43.13
2023-03-01T12:52:56.483Z,43.70
2023-03-01T12:55:37.268Z,43.64
2023-03-01T12:58:08.753Z,44.37
2023-03-01T13:00:46.714Z,43.96
2023-03-01T13:03:57.914Z,44.48
2023-03-01T13:06:44.200Z,45.26
2023-03-01T13:09:31.751Z,45.11
2023-03-01T13:11:58.843Z,45.84
2023-03-01T13:14:36.611Z,45.98
2023-03-01T13:17:03.353Z,46.98
2023-03-01T13:19:31.136Z,45.87
2023-03-01T13:21:57.715Z,47.81
2023-03-01T13:24:36.123Z,48.42
2023-03-01T13:27:08.337Z,48.76
2023-03-01T13:29:52.624Z,47.90
2023-03-01T13:32:42.967Z,47.41
2023-03-01T13:35:16.686Z,47.59
2023-03-01T13:37:45.852Z,46.09
2023-03-01T13:40:21.788Z,45.85
2023-03-01T13:43:04.284Z,45.62
2023-03-01T13:45:41.522Z,45.18
2023-03-01T13:48:27.070Z,46.83
2023-03-01T13:51:06.206Z,47.19
2023-03-01T13:53:36.783Z,45.88
2023-03-01T13:56:09.462Z,46.07
2023-03-01T13:58:49.328Z,46.56
2023-03-01T14:01:34.179Z,46.63
2023-03-01T14:04:01.902Z,46.17
2023-03-01T14:06:34.587Z,46.54
2023-03-01T14:09:16.160Z,46.98
2023-03-01T14:12:03.357Z,46.12
2023-03-01T14:14:59.172Z,43.07
2023-03-01T14:17:28.710Z,43.46
2023-03-01T14:20:10.157Z,46.08
2023-03-01T14:22:37.581Z,46.26
2023-03-01T14:25:18.080Z,46.31
2023-03-01T14:27:45.407Z,47.49
2023-03-01T14:30:51.639Z,46.51
2023-03-01T14:33:24.029Z,43.70
2023-03-01T14:36:14.270Z,45.30
2023-03-01T14:38:48.329Z,47.03
2023-03-01T14:41:17.800Z,45.89
2023-03-01T14:43:54.659Z,46.46
2023-03-01T14:46:39.510Z,46.09
2023-03-01T14:49:18.064Z,47.22
2023-03-01T14:51:54.402Z,46.82
2023-03-01T14:54:27.674Z,46.93
2023-03-01T14:56:58.681Z,46.69
2023-03-01T14:59:26.052Z,46.79
2023-03-01T15:01:56.312Z,47.55
2023-03-01T15:04:24.289Z,47.76
2023-03-01T15:06:56.544Z,48.32
2023-03-01T15:09:23.815Z,49.11
2023-03-01T15:11:50.386Z,50.04
2023-03-01T15:14:41.047Z,49.27
2023-03-01T15:17:27.370Z,49.50
2023-03-01T15:19:53.935Z,49.04
2023-03-01T15:22:21.885Z,49.53
2023-03-01T15:24:52.083Z,49.55
2023-03-01T15:27:22.790Z,50.23
2023-03-01T15:30:01.385Z,50.01
2023-03-01T15:32:33.910Z,50.16
2023-03-01T15:35:02.461Z,50.01
2023-03-01T15:37:49.692Z,50.15
2023-03-01T15:40:32.939Z,50.43
2023-03-01T15:43:00.023Z,50.69
2023-03-01T15:45:29.640Z,51.18
2023-03-01T15:48:04.527Z,51.36
2023-03-01T15:50:34.246Z,52.08
2023-03-01T15:53:04.805Z,53.79
2023-03-01T15:55:34.294Z,53.07
2023-03-01T15:58:07.845Z,52.46
2023-03-01T16:00:34.598Z,52.55
2023-03-01T16:03:01.296Z,52.66
2023-03-01T16:05:37.350Z,54.21
2023-03-01T16:08:04.980Z,55.03
2023-03-01T16:10:32.520Z,55.60
2023-03-01T16:12:59.255Z,58.50
2023-03-01T16:15:33.284Z,60.26
2023-03-01T16:18:00.297Z,60.21
2023-03-01T16:20:30.413Z,61.70
2023-03-01T16:23:07.400Z,63.56
2023-03-01T16:25:35.710Z,65.55
2023-03-01T16:28:06.020Z,66.28
2023-03-01T16:30:32.729Z,67.86
2023-03-01T16:32:59.632Z,66.83
2023-03-01T16:35:26.446Z,66.51
2023-03-01T16:37:54.894Z,66.92
2023-03-01T16:40:27.930Z,69.24
2023-03-01T16:42:58.113Z,71.58
2023-03-01T16:45:25.475Z,72.41
2023-03-01T16:47:55.691Z,74.08
2023-03-01T16:50:23.160Z,74.41
2023-03-01T16:52:49.686Z,74.66
2023-03-01T16:55:16.390Z,74.76
2023-03-01T16:57:42.963Z,75.47
2023-03-01T17:00:12.155Z,75.70
2023-03-01T17:02:38.829Z,75.67
2023-03-01T17:05:06.709Z,75.37
2023-03-01T17:07:34.404Z,75.36
2023-03-01T17:10:06.443Z,75.39
2023-03-01T17:12:33.652Z,75.80
2023-03-01T17:15:00.291Z,75.68
2023-03-01T17:17:27.875Z,75.98
2023-03-01T17:19:54.481Z,75.96
2023-03-01T17:22:21.024Z,76.37
2023-03-01T17:24:47.562Z,76.91
2023-03-01T17:27:14.906Z,77.99
2023-03-01T17:29:41.797Z,79.25
2023-03-01T17:32:09.263Z,77.93
2023-03-01T17:34:36.156Z,78.75
2023-03-01T17:37:02.645Z,79.21
2023-03-01T17:39:36.147Z,79.73
2023-03-01T17:42:06.228Z,79.37
2023-03-01T17:44:35.593Z,80.50
2023-03-01T17:47:03.512Z,82.40
2023-03-01T17:49:30.534Z,84.58
2023-03-01T17:51:57.189Z,85.21
2023-03-01T17:54:23.942Z,86.47
2023-03-01T17:56:50.898Z,86.78
2023-03-01T17:59:20.599Z,87.51
2023-03-01T18:01:47.682Z,87.84
2023-03-01T18:04:14.596Z,88.67
2023-03-01T18:06:41.244Z,88.83
2023-03-01T18:09:08.744Z,89.25
2023-03-01T18:11:36.340Z,90.60
2023-03-01T18:14:03.870Z,91.39
2023-03-01T18:16:32.221Z,91.49
2023-03-01T18:19:00.442Z,91.19
2023-03-01T18:21:31.217Z,91.97
2023-03-01T18:23:59.761Z,92.23
2023-03-01T18:26:28.005Z,92.50
2023-03-01T18:28:58.346Z,93.76
2023-03-01T18:31:25.303Z,93.83
2023-03-01T18:33:54.907Z,93.11
2023-03-01T18:36:27.133Z,92.23
2023-03-01T18:38:56.333Z,93.17
2023-03-01T18:41:27.830Z,94.46
2023-03-01T18:43:55.956Z,95.16
2023-03-01T18:46:23.345Z,95.95
2023-03-01T18:48:49.953Z,95.41
2023-03-01T18:51:18.959Z,95.97
2023-03-01T18:53:45.869Z,97.15
2023-03-01T18:56:12.652Z,99.86
2023-03-01T18:58:39.690Z,99.12
2023-03-01T19:01:12.518Z,97.42
2023-03-01T19:03:39.031Z,95.65
2023-03-01T19:06:05.625Z,96.43
2023-03-01T19:08:32.519Z,98.46
2023-03-01T19:11:01.047Z,100.00
2023-03-01T19:13:27.618Z,100.00
2023-03-01T19:16:06.340Z,100.00
2023-03-01T19:18:34.264Z,100.00
2023-03-01T19:21:04.343Z,100.00
2023-03-01T19:23:35.113Z,100.00
2023-03-01T19:26:07.802Z,100.00
2023-03-01T19:28:36.060Z,100.00
2023-03-01T19:31:06.600Z,100.00
2023-03-01T19:33:34.714Z,100.00
2023-03-01T19:36:02.378Z,100.00
2023-03-01T19:38:29.773Z,100.00
2023-03-01T19:40:56.843Z,100.00
2023-03-01T19:43:23.522Z,100.00
2023-03-01T19:45:55.095Z,100.00
2023-03-01T19:48:22.665Z,100.00
2023-03-01T19:50:50.980Z,100.00
2023-03-01T19:53:17.890Z,100.00
2023-03-01T19:55:44.582Z,100.00
2023-03-01T19:58:12.183Z,100.00
2023-03-01T20:00:40.298Z,100.00
2023-03-01T20:03:07.054Z,100.00
2023-03-01T20:05:37.878Z,100.00
2023-03-01T20:08:05.490Z,100.00
2023-03-01T20:10:34.007Z,100.00
2023-03-01T20:13:04.001Z,100.00
2023-03-01T20:15:31.210Z,100.00
2023-03-01T20:17:57.824Z,100.00
2023-03-01T20:20:24.412Z,100.00
2023-03-01T20:22:51.104Z,100.00
2023-03-01T20:25:17.943Z,100.00
2023-03-01T20:27:47.673Z,100.00
2023-03-01T20:30:15.651Z,100.00
2023-03-01T20:32:42.437Z,100.00
2023-03-01T20:35:09.519Z,100.00
2023-03-01T20:37:36.054Z,100.00
2023-03-01T20:40:02.565Z,100.00
2023-03-01T20:42:29.116Z,100.00
2023-03-01T20:44:55.620Z,100.00
2023-03-01T20:47:23.244Z,100.00
2023-03-01T20:49:53.296Z,100.00
2023-03-01T20:52:19.898Z,100.00
2023-03-01T20:54:46.704Z,100.00
2023-03-01T20:57:13.189Z,100.00
2023-03-01T20:59:39.705Z,100.00
2023-03-01T21:02:06.412Z,100.00
2023-03-01T21:04:32.882Z,100.00
2023-03-01T21:06:59.416Z,100.00
2023-03-01T21:09:25.926Z,100.00
2023-03-01T21:11:52.450Z,100.00
2023-03-01T21:14:19.030Z,100.00
2023-03-01T21:16:45.959Z,100.00
2023-03-01T21:19:12.903Z,100.00
2023-03-01T21:21:39.609Z,100.00
2023-03-01T21:24:06.740Z,100.00
2023-03-01T21:26:33.687Z,100.00
2023-03-01T21:29:04.030Z,100.00
2023-03-01T21:31:34.064Z,100.00
2023-03-01T21:34:06.841Z,100.00
2023-03-01T21:36:34.674Z,100.00
2023-03-01T21:39:02.390Z,100.00
2023-03-01T21:41:31.746Z,100.00
2023-03-01T21:44:00.919Z,100.00
2023-03-01T21:46:31.007Z,100.00
2023-03-01T21:48:58.535Z,100.00
2023-03-01T21:51:27.641Z,100.00
2023-03-01T21:53:55.802Z,100.00
2023-03-01T21:56:25.470Z,100.00
2023-03-01T21:58:52.771Z,100.00
2023-03-01T22:01:24.573Z,100.00
2023-03-01T22:03:51.622Z,100.00
2023-03-01T22:06:20.743Z,100.00
2023-03-01T22:08:53.731Z,100.00
2023-03-01T22:11:20.418Z,100.00
2023-03-01T22:13:49.563Z,100.00
2023-03-01T22:16:17.034Z,100.00
2023-03-01T22:18:45.146Z,100.00
2023-03-01T22:21:11.888Z,100.00
2023-03-01T22:23:39.562Z,100.00
2023-03-01T22:26:06.608Z,100.00
2023-03-01T22:28:33.794Z,100.00
2023-03-01T22:31:04.819Z,100.00
2023-03-01T22:33:31.831Z,100.00
2023-03-01T22:35:58.372Z,100.00
2023-03-01T22:38:24.895Z,100.00
2023-03-01T22:41:02.523Z,100.00
2023-03-01T22:43:31.285Z,100.00
2023-03-01T22:45:57.827Z,100.00
2023-03-01T22:48:25.631Z,100.00
2023-03-01T22:50:52.590Z,100.00
2023-03-01T22:53:19.231Z,100.00
2023-03-01T22:55:45.793Z,100.00
2023-03-01T22:58:12.341Z,100.00
2023-03-01T23:00:38.832Z,100.00
2023-03-01T23:03:05.553Z,100.00
2023-03-01T23:05:32.158Z,100.00
2023-03-01T23:07:58.652Z,100.00
2023-03-01T23:10:26.004Z,100.00
2023-03-01T23:12:55.454Z,100.00
2023-03-01T23:15:21.972Z,100.00
2023-03-01T23:17:48.567Z,100.00
2023-03-01T23:20:15.405Z,100.00
2023-03-01T23:22:42.043Z,100.00
2023-03-01T23:25:14.996Z,100.00
2023-03-01T23:27:41.887Z,100.00
2023-03-01T23:30:09.792Z,100.00
2023-03-01T23:32:40.844Z,100.00
2023-03-01T23:35:08.827Z,100.00
2023-03-01T23:37:35.333Z,100.00
2023-03-01T23:40:02.049Z,100.00
2023-03-01T23:42:28.518Z,100.00
2023-03-01T23:44:55.059Z,100.00
2023-03-01T23:47:21.529Z,100.00
2023-03-01T23:49:50.282Z,100.00
2023-03-01T23:52:17.400Z,100.00
2023-03-01T23:54:44.511Z,100.00
2023-03-01T23:57:10.999Z,100.00
2023-03-01T23:59:37.504Z,100.00
